Time;durP1;ratioP1;P1;durP2;ratioP2;P2;SDS_P1;SDS_P2;PMS_P1;PMS_P2;Temp;Humidity;BMP_temperature;BMP_pressure;BME280_temperature;BME280_humidity;BME280_pressure;Samples;Min_cycle;Max_cycle;Signal;HPM_P1;HPM_P2
2022/12/17 13:07:21;;;;;;;49.20;19.85;;;;;;;0.02;62.79;100814.84;5013697;28;20045;-78
2022/12/17 13:09:52;;;;;;;45.53;19.23;;;;;;;0.02;61.89;100807.09;5013762;28;20058;-80
2022/12/17 13:12:54;;;;;;;54.97;20.48;;;;;;;-0.02;62.85;100798.44;5013566;28;20065;-79
2022/12/17 13:15:39;;;;;;;53.97;22.45;;;;;;;-0.02;62.60;100795.88;4971738;28;20055;-79
2022/12/17 13:18:19;;;;;;;51.75;22.23;;;;;;;-0.02;62.41;100803.63;4992746;28;20050;-80
2022/12/17 13:21:00;;;;;;;53.00;20.50;;;;;;;-0.04;62.39;100792.38;5115733;23;20057;-83
2022/12/17 13:23:32;;;;;;;55.50;21.55;;;;;;;-0.06;61.76;100790.66;4996179;28;20049;-82
2022/12/17 13:26:13;;;;;;;50.95;20.20;;;;;;;-0.10;62.56;100794.09;5013374;28;20050;-82
2022/12/17 13:28:40;;;;;;;53.65;20.70;;;;;;;-0.10;61.59;100797.56;5013247;28;20491;-82
2022/12/17 13:31:25;;;;;;;53.30;20.40;;;;;;;-0.12;62.97;100803.59;5013423;28;20128;-83
2022/12/17 13:34:14;;;;;;;45.35;19.02;;;;;;;-0.12;62.77;100801.00;4995769;28;20058;-83
2022/12/17 13:36:53;;;;;;;50.45;20.42;;;;;;;-0.11;62.83;100794.94;4983513;28;20065;-83
2022/12/17 13:39:34;;;;;;;49.85;20.92;;;;;;;-0.09;61.99;100795.81;5012902;28;20107;-84
2022/12/17 13:42:01;;;;;;;55.30;21.08;;;;;;;-0.08;61.93;100797.56;5012698;28;20240;-83
2022/12/17 13:44:42;;;;;;;53.30;21.20;;;;;;;-0.10;62.07;100794.97;5013092;28;20073;-82
2022/12/17 13:47:39;;;;;;;48.75;20.67;;;;;;;-0.11;63.38;100800.13;4995452;28;20050;-83
2022/12/17 13:50:37;;;;;;;51.83;20.52;;;;;;;-0.09;63.01;100793.22;5000398;28;20062;-84
2022/12/17 13:53:11;;;;;;;52.50;20.27;;;;;;;-0.08;62.47;100794.97;4979762;28;20050;-83
2022/12/17 13:55:39;;;;;;;46.90;22.20;;;;;;;-0.07;61.72;100800.13;5012754;28;20088;-81
2022/12/17 13:58:19;;;;;;;50.45;21.02;;;;;;;-0.06;62.12;100803.59;5012671;28;20046;-84
2022/12/17 14:00:45;;;;;;;50.75;20.98;;;;;;;-0.07;61.82;100805.31;5012527;28;20056;-84
2022/12/17 14:03:12;;;;;;;51.55;22.48;;;;;;;-0.06;62.26;100804.47;5012858;28;20104;-83
2022/12/17 14:05:43;;;;;;;59.63;23.65;;;;;;;-0.05;62.00;100805.31;4995334;28;20050;-82
2022/12/17 14:08:16;;;;;;;51.42;21.67;;;;;;;-0.06;62.14;100801.88;5012677;28;20149;-81
2022/12/17 14:12:20;;;;;;;54.10;22.00;;;;;;;-0.06;62.12;100801.88;5012552;28;20473;-82
2022/12/17 14:13:39;;;;;;;52.70;20.27;;;;;;;-0.01;61.80;100812.25;5012579;28;20065;-82
2022/12/17 14:16:06;;;;;;;46.83;19.83;;;;;;;0.01;61.64;100809.66;4995304;28;20058;-84
2022/12/17 14:18:33;;;;;;;45.90;18.88;;;;;;;0.03;61.72;100805.38;5012529;28;20054;-80
2022/12/17 14:21:01;;;;;;;52.25;20.00;;;;;;;0.05;62.04;100812.28;5012698;28;20054;-81
2022/12/17 14:23:30;;;;;;;52.60;21.23;;;;;;;0.06;61.67;100805.34;5012270;28;20506;-80
2022/12/17 14:25:57;;;;;;;51.75;19.42;;;;;;;0.05;61.11;100804.50;5012337;28;20050;-83
2022/12/17 14:28:30;;;;;;;44.38;18.67;;;;;;;0.03;61.56;100798.44;4994844;28;20104;-81
2022/12/17 14:31:06;;;;;;;47.83;18.55;;;;;;;0.03;61.69;100801.03;4994685;28;20054;-83
2022/12/17 14:34:06;;;;;;;45.72;18.50;;;;;;;0.03;62.09;100806.22;5011880;28;20726;-82
2022/12/17 14:36:37;;;;;;;50.85;18.40;;;;;;;0.05;61.31;100817.44;5012236;28;20062;-80
2022/12/17 14:39:27;;;;;;;44.28;18.40;;;;;;;0.05;62.45;100814.88;4994539;28;20054;-82
2022/12/17 14:42:24;;;;;;;48.83;18.85;;;;;;;0.06;62.06;100819.19;5012028;28;20133;-82
2022/12/17 14:45:20;;;;;;;43.03;19.15;;;;;;;0.07;61.96;100818.31;4989736;28;20061;-80
2022/12/17 14:48:03;;;;;;;55.15;22.30;;;;;;;0.07;61.60;100831.25;4994578;28;20060;-83
2022/12/17 14:50:31;;;;;;;;;;;;;;;0.07;61.89;100827.81;5012341;28;20062;-81
2022/12/17 14:53:21;;;;;;;42.15;17.98;;;;;;;0.02;60.87;100825.19;5003182;28;20409;-82
2022/12/17 14:55:54;;;;;;;41.40;17.70;;;;;;;-0.03;60.98;100830.34;4993981;28;20567;-81
2022/12/17 14:58:22;;;;;;;49.60;20.02;;;;;;;-0.08;60.64;100831.22;5011594;28;20421;-84
2022/12/17 15:00:51;;;;;;;47.53;20.20;;;;;;;-0.14;60.66;100834.63;5011387;28;20185;-83
2022/12/17 15:03:22;;;;;;;47.85;19.35;;;;;;;-0.20;60.93;100842.34;5011442;28;20054;-82
2022/12/17 15:05:53;;;;;;;45.28;18.33;;;;;;;-0.24;61.31;100846.66;5011470;28;20046;-85
2022/12/17 15:08:20;;;;;;;44.75;18.02;;;;;;;-0.26;61.23;100843.19;4994061;28;20127;-84
2022/12/17 15:10:47;;;;;;;46.40;18.95;;;;;;;-0.27;61.21;100844.91;5011518;28;20070;-82
2022/12/17 15:13:13;;;;;;;43.10;17.95;;;;;;;-0.28;60.78;100838.00;5011413;28;20457;-83
2022/12/17 15:15:40;;;;;;;43.08;17.38;;;;;;;-0.31;60.55;100840.56;5011056;28;20156;-84
2022/12/17 15:18:07;;;;;;;39.08;15.82;;;;;;;-0.33;60.37;100836.25;4993586;28;20411;-81
2022/12/17 15:20:33;;;;;;;39.13;15.95;;;;;;;-0.36;60.61;100831.94;5011149;28;20061;-82
2022/12/17 15:23:00;;;;;;;44.97;17.63;;;;;;;-0.39;60.78;100831.91;5011619;28;20178;-85
2022/12/17 15:25:27;;;;;;;45.70;18.05;;;;;;;-0.42;60.82;100835.34;5011701;28;20475;-82
2022/12/17 15:27:54;;;;;;;45.08;17.15;;;;;;;-0.47;60.98;100826.69;5011137;28;20502;-81
2022/12/17 15:30:20;;;;;;;40.80;15.70;;;;;;;-0.50;60.80;100829.25;5011370;28;20487;-84
2022/12/17 15:32:47;;;;;;;37.63;16.83;;;;;;;-0.54;60.88;100833.56;5011085;28;20495;-78
2022/12/17 15:35:13;;;;;;;44.25;17.33;;;;;;;-0.57;60.87;100832.66;4993293;28;20549;-82
2022/12/17 15:37:40;;;;;;;39.60;16.20;;;;;;;-0.60;60.95;100835.22;5010975;28;20072;-82
2022/12/17 15:40:10;;;;;;;44.78;16.15;;;;;;;-0.62;60.61;100839.50;4993501;28;20271;-83
2022/12/17 15:45:29;;;;;;;37.33;16.15;;;;;;;-0.70;60.98;100836.88;5010960;28;20058;-82
2022/12/17 15:47:56;;;;;;;39.60;15.48;;;;;;;-0.71;60.78;100850.69;5010995;28;20053;-83
2022/12/17 15:50:23;;;;;;;40.85;15.90;;;;;;;-0.72;60.84;100851.50;5011020;28;20058;-80
2022/12/17 15:52:49;;;;;;;39.03;14.98;;;;;;;-0.73;61.15;100847.19;5011181;28;20057;-82
2022/12/17 15:55:16;;;;;;;45.05;16.45;;;;;;;-0.73;61.13;100849.78;5010658;28;20053;-82
2022/12/17 15:57:42;;;;;;;40.50;16.42;;;;;;;-0.73;61.06;100842.03;5010922;28;20065;-81
2022/12/17 16:00:10;;;;;;;39.53;15.30;;;;;;;-0.73;61.13;100845.50;5012944;28;20478;-81
2022/12/17 16:02:37;;;;;;;38.35;16.67;;;;;;;-0.72;61.12;100844.63;5010889;28;20050;-80
2022/12/17 16:05:04;;;;;;;40.38;15.63;;;;;;;-0.72;61.14;100852.38;5013235;28;20053;-82
2022/12/17 16:07:31;;;;;;;42.90;16.52;;;;;;;-0.71;60.96;100861.88;5014715;28;20053;-79
2022/12/17 16:09:57;;;;;;;39.75;14.52;;;;;;;-0.71;60.80;100861.88;5014761;28;20081;-81
2022/12/17 16:12:30;;;;;;;42.05;17.13;;;;;;;-0.72;60.92;100859.25;4998428;28;20058;-80
2022/12/17 16:14:57;;;;;;;43.88;16.63;;;;;;;-0.72;60.70;100854.97;5014682;28;20081;-80
2022/12/17 16:17:23;;;;;;;44.40;17.27;;;;;;;-0.73;60.71;100861.00;5014678;28;20491;-81
2022/12/17 16:19:50;;;;;;;52.58;18.48;;;;;;;-0.73;61.00;100855.84;5014928;28;20054;-80
2022/12/17 16:22:17;;;;;;;48.47;18.50;;;;;;;-0.73;60.72;100863.59;5014649;28;20064;-80
2022/12/17 16:24:43;;;;;;;49.92;18.77;;;;;;;-0.74;60.40;100866.16;5014826;28;20084;-82
2022/12/17 16:27:10;;;;;;;53.53;19.50;;;;;;;-0.77;60.37;100869.59;5014603;28;20054;-80
2022/12/17 16:29:37;;;;;;;49.60;20.73;;;;;;;-0.81;60.35;100870.41;4997062;28;20064;-79
2022/12/17 16:32:03;;;;;;;50.22;19.75;;;;;;;-0.86;60.61;100867.78;5014348;28;20150;-80
2022/12/17 16:34:30;;;;;;;49.15;19.58;;;;;;;-0.90;60.64;100865.16;5014401;28;20058;-81
2022/12/17 16:36:56;;;;;;;48.90;18.23;;;;;;;-0.93;60.82;100868.59;5014101;28;20053;-79
2022/12/17 16:39:23;;;;;;;52.47;19.20;;;;;;;-0.95;60.88;100862.53;4997035;28;20675;-80
2022/12/17 16:41:49;;;;;;;51.95;20.95;;;;;;;-0.97;60.91;100869.44;5013988;28;20046;-81
2022/12/17 16:44:16;;;;;;;43.83;18.60;;;;;;;-0.98;61.02;100862.50;5014195;28;20156;-80
2022/12/17 16:46:43;;;;;;;44.92;19.52;;;;;;;-1.00;60.70;100877.13;5013979;28;20061;-82
2022/12/17 16:49:13;;;;;;;52.30;18.98;;;;;;;-1.04;60.65;100881.44;5014018;28;20502;-85
2022/12/17 16:51:40;;;;;;;55.92;19.92;;;;;;;-1.06;61.02;100880.53;5014110;28;20144;-82
2022/12/17 16:54:10;;;;;;;49.28;19.08;;;;;;;-1.09;60.59;100891.72;5014175;28;20046;-81
2022/12/17 16:56:36;;;;;;;42.38;18.00;;;;;;;-1.12;60.29;100891.66;4995976;28;20625;-82
2022/12/17 16:59:07;;;;;;;49.97;19.95;;;;;;;-1.18;60.46;100881.28;5014003;28;20053;-82
2022/12/17 17:01:34;;;;;;;47.33;18.95;;;;;;;-1.23;60.21;100896.72;5013569;28;20065;-80
2022/12/17 17:04:02;;;;;;;53.60;19.85;;;;;;;-1.30;60.26;100897.53;5013670;28;20107;-83
2022/12/17 17:06:29;;;;;;;52.80;19.35;;;;;;;-1.37;60.50;100887.97;5013765;28;20060;-81
2022/12/17 17:09:03;;;;;;;53.95;20.30;;;;;;;-1.46;60.91;100884.44;5013779;28;20495;-78
2022/12/17 17:11:30;;;;;;;53.53;19.90;;;;;;;-1.47;60.62;100898.22;5013640;28;20058;-80
2022/12/17 17:13:56;;;;;;;52.55;20.42;;;;;;;-1.51;60.47;100899.03;5013548;28;20065;-77
2022/12/17 17:16:24;;;;;;;52.13;20.05;;;;;;;-1.56;60.74;100895.53;5012722;28;20177;-77
2022/12/17 17:18:52;;;;;;;57.08;19.65;;;;;;;-1.59;60.87;100895.50;5013342;28;20449;-78
2022/12/17 17:21:18;;;;;;;62.58;21.80;;;;;;;-1.62;61.05;100896.31;5013545;28;20169;-81
2022/12/17 17:23:46;;;;;;;60.00;23.05;;;;;;;-1.66;60.94;100896.25;5013463;28;20144;-79
2022/12/17 17:26:13;;;;;;;93.07;25.90;;;;;;;-1.72;61.22;100899.66;5013082;28;20081;-79
2022/12/17 17:28:40;;;;;;;67.63;23.27;;;;;;;-1.78;61.55;100908.19;4995850;28;20108;-78
2022/12/17 17:31:10;;;;;;;58.00;22.45;;;;;;;-1.86;61.39;100908.06;5013289;28;20050;-80
2022/12/17 17:33:42;;;;;;;54.08;21.55;;;;;;;-1.90;61.25;100910.59;5013492;28;20458;-81
2022/12/17 17:36:11;;;;;;;66.85;23.27;;;;;;;-1.95;61.52;100901.94;5013224;28;20112;-81
2022/12/17 17:38:39;;;;;;;57.63;21.38;;;;;;;-1.98;61.86;100905.34;5013260;28;20068;-78
2022/12/17 17:41:10;;;;;;;52.97;21.45;;;;;;;-2.02;61.67;100909.56;5013057;28;20069;-79
2022/12/17 17:43:36;;;;;;;63.53;22.48;;;;;;;-2.03;61.56;100917.28;4996005;28;20057;-80
2022/12/17 17:46:16;;;;;;;48.80;21.35;;;;;;;-2.07;61.88;100924.13;5013059;28;20049;-80
2022/12/17 17:48:45;;;;;;;50.78;20.65;;;;;;;-2.07;61.26;100924.13;5013092;28;20058;-82
2022/12/17 17:51:19;;;;;;;53.00;20.17;;;;;;;-2.08;61.86;100925.00;5012982;28;20065;-80
2022/12/17 17:54:04;;;;;;;52.97;19.90;;;;;;;-2.06;61.46;100923.28;5012775;28;20058;-80
2022/12/17 17:56:40;;;;;;;53.90;22.13;;;;;;;-2.04;61.63;100918.16;4996542;28;20144;-80
2022/12/17 17:59:09;;;;;;;59.60;23.55;;;;;;;-2.05;61.63;100927.63;5012771;28;20069;-80
2022/12/17 18:01:40;;;;;;;59.95;24.25;;;;;;;-2.04;61.80;100929.34;5012639;28;20491;-81
2022/12/17 18:04:10;;;;;;;60.58;23.08;;;;;;;-2.07;61.63;100929.28;5012703;28;20092;-80
2022/12/17 18:06:39;;;;;;;75.75;25.98;;;;;;;-2.09;61.46;100933.59;5012458;28;20064;-80
2022/12/17 18:09:18;;;;;;;72.90;23.67;;;;;;;-2.13;61.56;100942.13;4997207;28;20049;-81
2022/12/17 18:11:45;;;;;;;55.95;21.23;;;;;;;-2.18;61.30;100930.84;5012634;28;20060;-81
2022/12/17 18:14:12;;;;;;;56.25;20.42;;;;;;;-2.22;61.41;100932.53;4995070;28;20062;-79
2022/12/17 18:16:44;;;;;;;47.45;19.00;;;;;;;-2.28;61.42;100932.44;5012190;28;20054;-80
2022/12/17 18:19:19;;;;;;;34.78;14.77;;;;;;;-2.30;62.43;100924.69;4994997;28;20058;-80
2022/12/17 18:21:47;;;;;;;39.60;17.35;;;;;;;-2.29;61.19;100928.09;5012315;28;20119;-81
2022/12/17 18:24:16;;;;;;;48.67;19.42;;;;;;;-2.32;61.84;100918.59;5012141;28;20528;-81
2022/12/17 18:26:44;;;;;;;47.15;21.33;;;;;;;-2.33;61.49;100929.78;5012144;28;20406;-81
2022/12/17 18:29:15;;;;;;;49.20;19.95;;;;;;;-2.37;61.72;100930.56;5011447;28;20104;-84
2022/12/17 18:31:42;;;;;;;44.22;18.75;;;;;;;-2.39;61.58;100935.69;4995228;28;20410;-86
2022/12/17 18:34:19;;;;;;;53.72;20.58;;;;;;;-2.42;61.67;100929.63;5012221;28;20129;-81
2022/12/17 18:36:46;;;;;;;50.35;18.88;;;;;;;-2.42;61.54;100932.22;4994596;28;20062;-84
2022/12/17 18:39:17;;;;;;;54.17;18.52;;;;;;;-2.44;62.26;100941.66;5012129;28;20058;-82
2022/12/17 18:44:31;;;;;;;46.40;17.88;;;;;;;-2.43;61.42;100940.81;5012215;28;20052;-82
2022/12/17 18:46:59;;;;;;;46.28;17.95;;;;;;;-2.44;61.67;100937.34;5011766;28;20591;-82
2022/12/17 18:49:25;;;;;;;48.78;19.08;;;;;;;-2.44;61.06;100942.50;5012001;28;20061;-82
2022/12/17 18:51:53;;;;;;;74.70;20.92;;;;;;;-2.45;61.53;100950.22;5011777;28;20046;-83
2022/12/17 18:54:27;;;;;;;44.47;17.63;;;;;;;-2.46;61.55;100943.31;5011692;28;20057;-81
2022/12/17 18:56:56;;;;;;;41.17;17.67;;;;;;;-2.47;61.23;100939.03;4994383;28;20061;-83
2022/12/17 18:59:28;;;;;;;42.90;17.98;;;;;;;-2.49;61.17;100942.44;5011828;28;20541;-81
2022/12/17 19:01:55;;;;;;;42.47;17.30;;;;;;;-2.49;61.66;100936.41;5011797;28;20054;-80
2022/12/17 19:04:23;;;;;;;41.80;17.20;;;;;;;-2.50;61.51;100934.69;5011756;28;20051;-81
2022/12/17 19:06:52;;;;;;;41.20;17.48;;;;;;;-2.47;61.52;100946.75;5011186;28;20061;-79
2022/12/17 19:09:23;;;;;;;44.75;18.95;;;;;;;-2.45;61.47;100951.09;5011769;28;20594;-80
2022/12/17 19:11:51;;;;;;;46.35;18.08;;;;;;;-2.43;61.20;100953.69;4994180;28;20331;-80
2022/12/17 19:14:20;;;;;;;43.50;18.40;;;;;;;-2.43;61.15;100957.13;4994229;28;20115;-81
2022/12/17 19:16:48;;;;;;;49.70;18.92;;;;;;;-2.41;61.78;100963.19;5011145;28;20104;-80
2022/12/17 19:19:15;;;;;;;38.78;16.73;;;;;;;-2.40;61.21;100966.63;4993781;28;20115;-81
2022/12/17 19:21:41;;;;;;;43.33;18.00;;;;;;;-2.39;61.39;100973.53;5050404;23;20062;-77
2022/12/17 19:24:12;;;;;;;44.45;18.40;;;;;;;-2.38;61.55;100980.41;5010648;28;20089;-75
2022/12/17 19:26:38;;;;;;;42.58;17.50;;;;;;;-2.36;61.22;100979.59;4993050;28;20112;-76
2022/12/17 19:29:07;;;;;;;45.60;18.30;;;;;;;-2.33;61.13;100981.34;5010588;28;20108;-78
2022/12/17 19:31:34;;;;;;;41.63;17.73;;;;;;;-2.32;61.32;100983.09;5010354;28;20054;-77
2022/12/17 19:34:03;;;;;;;37.83;16.52;;;;;;;-2.27;61.69;100983.19;5010359;28;20153;-77
2022/12/17 19:36:32;;;;;;;38.95;17.85;;;;;;;-2.28;61.06;100973.72;4992852;28;20054;-78
2022/12/17 19:39:01;;;;;;;61.95;19.33;;;;;;;-2.29;60.87;100969.38;5010199;28;20089;-77
2022/12/17 19:41:28;;;;;;;45.67;18.65;;;;;;;-2.34;60.81;100966.72;4992742;28;20058;-78
2022/12/17 19:43:57;;;;;;;41.42;17.23;;;;;;;-2.38;60.57;100968.41;5010455;28;20100;-77
2022/12/17 19:46:24;;;;;;;41.67;17.38;;;;;;;-2.44;60.49;100965.72;5010148;28;20102;-77
2022/12/17 19:48:51;;;;;;;38.33;17.23;;;;;;;-2.49;60.56;100970.81;5010018;28;20141;-77
2022/12/17 19:51:21;;;;;;;40.70;17.25;;;;;;;-2.52;61.15;100983.63;5010067;28;20500;-77
2022/12/17 19:53:48;;;;;;;34.42;16.42;;;;;;;-2.56;61.23;100974.13;5010326;28;20104;-77
2022/12/17 19:56:17;;;;;;;40.53;17.33;;;;;;;-2.57;60.96;100974.09;5010047;28;20144;-76
2022/12/17 19:58:45;;;;;;;46.28;18.60;;;;;;;-2.58;60.94;100974.94;5010192;28;20145;-76
2022/12/17 20:01:14;;;;;;;48.38;18.77;;;;;;;-2.57;61.25;100984.41;5009895;28;20092;-77
2022/12/17 20:03:42;;;;;;;53.90;21.75;;;;;;;-2.56;61.68;100984.44;5010205;28;20064;-77
2022/12/17 20:06:10;;;;;;;43.20;19.15;;;;;;;-2.56;61.31;100981.84;5009908;28;20463;-77
2022/12/17 20:08:37;;;;;;;49.47;21.05;;;;;;;-2.55;60.96;100983.59;5010039;28;20310;-78
2022/12/17 20:11:31;;;;;;;48.22;20.83;;;;;;;-2.58;61.13;100983.53;5009976;28;20096;-77
2022/12/17 20:13:57;;;;;;;42.13;18.08;;;;;;;-2.62;60.96;100974.88;5009866;28;20134;-77
2022/12/17 20:16:23;;;;;;;50.15;21.83;;;;;;;-2.66;60.51;100982.56;5009956;28;20144;-76
2022/12/17 20:18:50;;;;;;;49.55;19.08;;;;;;;-2.69;60.55;100985.06;4992427;28;20061;-77
2022/12/17 20:21:17;;;;;;;45.33;19.17;;;;;;;-2.73;60.84;100983.28;5009645;28;20569;-77
2022/12/17 20:23:49;;;;;;;40.45;18.75;;;;;;;-2.78;61.09;100980.59;5009887;28;20057;-76
2022/12/17 20:26:17;;;;;;;45.78;19.48;;;;;;;-2.81;60.45;100978.84;5009869;28;20093;-78
2022/12/17 20:28:44;;;;;;;37.22;17.88;;;;;;;-2.85;60.89;100983.94;5009945;28;20066;-77
2022/12/17 20:31:11;;;;;;;44.20;18.52;;;;;;;-2.90;60.66;100988.97;5010034;28;20089;-77
2022/12/17 20:33:39;;;;;;;41.40;17.55;;;;;;;-2.94;60.42;100997.50;5009734;28;20058;-77
2022/12/17 20:36:11;;;;;;;41.05;18.02;;;;;;;-2.99;60.62;101001.69;5009825;28;20054;-77
2022/12/17 20:38:38;;;;;;;38.25;17.75;;;;;;;-3.02;60.73;100998.19;4992356;28;20152;-77
2022/12/17 20:41:09;;;;;;;43.20;19.17;;;;;;;-3.05;60.48;100994.72;5009829;28;20050;-76
2022/12/17 20:43:37;;;;;;;42.15;18.15;;;;;;;-3.08;60.71;100997.22;5009627;28;20492;-77
2022/12/17 20:46:03;;;;;;;36.15;16.50;;;;;;;-3.10;60.96;100992.03;5009616;28;20112;-77
2022/12/17 20:48:30;;;;;;;39.22;17.55;;;;;;;-3.15;60.73;100989.38;5009509;28;20104;-77
2022/12/17 20:50:56;;;;;;;34.70;16.42;;;;;;;-3.20;60.52;100992.69;5010152;28;20050;-76
2022/12/17 20:53:23;;;;;;;33.25;17.58;;;;;;;-3.25;60.72;100996.91;5013237;28;20061;-76
2022/12/17 20:56:03;;;;;;;40.80;17.02;;;;;;;-3.35;60.84;100989.00;5013118;28;20053;-77
2022/12/17 20:58:30;;;;;;;34.30;16.25;;;;;;;-3.39;60.11;100989.78;4995649;28;20096;-77
2022/12/17 21:01:05;;;;;;;35.30;16.80;;;;;;;-3.47;60.60;100993.88;5013057;28;20104;-77
2022/12/17 21:03:32;;;;;;;36.95;16.48;;;;;;;-3.50;60.37;100991.25;5013069;28;20104;-77
2022/12/17 21:06:12;;;;;;;40.72;18.27;;;;;;;-3.56;61.08;100989.41;5013095;28;20105;-77
2022/12/17 21:08:40;;;;;;;33.50;15.85;;;;;;;-3.61;60.79;100985.88;5013143;28;20101;-77
2022/12/17 21:11:19;;;;;;;37.50;16.50;;;;;;;-3.66;61.13;100988.34;5013091;28;20080;-76
2022/12/17 21:13:45;;;;;;;33.58;15.43;;;;;;;-3.70;61.21;100983.97;4995556;28;20540;-77
2022/12/17 21:16:20;;;;;;;35.75;16.75;;;;;;;-3.72;61.26;100985.63;5012737;28;20053;-77
2022/12/17 21:18:47;;;;;;;29.63;14.50;;;;;;;-3.73;61.25;101005.38;5012893;28;20064;-77
2022/12/17 21:21:17;;;;;;;34.90;17.45;;;;;;;-3.74;61.42;101005.34;5012519;28;20492;-76
2022/12/17 21:23:45;;;;;;;36.40;16.58;;;;;;;-3.75;61.04;101001.00;5012885;28;20451;-76
2022/12/17 21:26:15;;;;;;;33.85;17.25;;;;;;;-3.75;61.32;101008.72;5013063;28;20062;-77
2022/12/17 21:28:46;;;;;;;37.85;16.60;;;;;;;-3.74;61.43;101008.75;5012550;28;20085;-76
2022/12/17 21:31:22;;;;;;;39.42;17.25;;;;;;;-3.75;61.35;101001.00;5012717;28;20560;-76
2022/12/17 21:33:50;;;;;;;40.60;18.50;;;;;;;-3.74;61.33;100995.03;5012790;28;20142;-77
2022/12/17 21:36:19;;;;;;;36.83;17.48;;;;;;;-3.72;61.36;101003.66;5012980;28;20057;-76
2022/12/17 21:38:46;;;;;;;40.78;17.98;;;;;;;-3.73;61.60;101007.06;5012624;28;20428;-76
2022/12/17 21:41:16;;;;;;;39.65;17.70;;;;;;;-3.73;61.81;101007.94;5012242;28;20654;-76
2022/12/17 21:43:43;;;;;;;38.90;17.90;;;;;;;-3.71;61.68;101015.66;5012314;28;20093;-77
2022/12/17 21:46:11;;;;;;;39.28;19.05;;;;;;;-3.71;61.80;101008.84;5012377;28;20053;-77
2022/12/17 21:48:39;;;;;;;45.00;19.83;;;;;;;-3.69;61.25;101008.88;5012250;28;20065;-77
2022/12/17 21:51:10;;;;;;;45.85;19.45;;;;;;;-3.69;60.98;101025.19;5012416;28;20053;-77
2022/12/17 21:53:42;;;;;;;39.35;18.73;;;;;;;-3.69;60.97;101025.19;5012220;28;20128;-77
2022/12/17 21:56:11;;;;;;;28.37;12.93;;;;;;;-3.69;61.78;101034.59;5012405;28;20062;-77
2022/12/17 21:58:39;;;;;;;37.70;17.52;;;;;;;-3.69;61.67;101022.63;5012114;28;20879;-77
2022/12/17 22:01:15;;;;;;;44.97;18.83;;;;;;;-3.72;61.57;101027.69;5012096;28;20058;-77
2022/12/17 22:03:46;;;;;;;39.67;18.20;;;;;;;-3.70;61.13;101027.72;5012016;28;20058;-77
2022/12/17 22:06:22;;;;;;;39.17;18.55;;;;;;;-3.71;61.54;101028.53;4995384;28;20147;-77
2022/12/17 22:08:53;;;;;;;49.22;20.92;;;;;;;-3.72;60.93;101037.97;5012022;28;20462;-77
2022/12/17 22:11:27;;;;;;;41.78;18.92;;;;;;;-3.73;60.75;101033.69;5012261;28;20054;-77
2022/12/17 22:14:11;;;;;;;42.90;18.98;;;;;;;-3.75;61.50;101029.31;5011931;28;20153;-77
2022/12/17 22:16:47;;;;;;;31.45;12.88;;;;;;;-3.76;61.57;101033.59;5011733;28;20072;-77
2022/12/17 22:19:19;;;;;;;43.67;19.27;;;;;;;-3.78;61.00;101035.25;5011883;28;20111;-77
2022/12/17 22:21:48;;;;;;;40.08;18.88;;;;;;;-3.80;60.88;101036.94;5011512;28;20108;-78
2022/12/17 22:24:18;;;;;;;35.10;17.85;;;;;;;-3.84;61.63;101036.00;4994310;28;20065;-77
2022/12/17 22:26:45;;;;;;;42.78;19.67;;;;;;;-3.83;61.25;101035.16;5011300;28;20085;-77
2022/12/17 22:32:58;;;;;;;38.28;18.25;;;;;;;-3.83;61.12;101036.84;5011988;28;20058;-77
2022/12/17 22:34:46;;;;;;;35.08;16.73;;;;;;;-3.83;61.66;101037.75;5011292;28;20056;-76
2022/12/17 22:37:32;;;;;;;33.90;16.20;;;;;;;-3.82;61.42;101023.16;5011232;28;20504;-76
2022/12/17 22:40:21;;;;;;;35.97;17.02;;;;;;;-3.80;61.51;101029.22;5005945;28;20062;-76
2022/12/17 22:43:29;;;;;;;41.70;18.77;;;;;;;-3.79;61.85;101028.38;5011202;28;20054;-76
2022/12/17 22:46:15;;;;;;;37.90;16.33;;;;;;;-3.78;61.04;101016.38;5011528;28;20053;-77
2022/12/17 22:48:42;;;;;;;32.17;15.77;;;;;;;-3.78;61.35;101019.81;5011143;28;20058;-77
2022/12/17 22:51:09;;;;;;;38.92;17.83;;;;;;;-3.78;61.04;101018.97;5011208;28;20054;-77
2022/12/17 22:53:38;;;;;;;34.17;17.35;;;;;;;-3.77;61.03;101019.00;5011152;28;20084;-77
2022/12/17 22:56:06;;;;;;;37.63;18.17;;;;;;;-3.75;61.25;101024.16;4993361;28;20563;-77
2022/12/17 22:58:52;;;;;;;36.22;16.48;;;;;;;-3.73;61.36;101023.38;5011113;28;20061;-77
2022/12/17 23:01:19;;;;;;;35.88;17.77;;;;;;;-3.72;61.33;101019.09;5010905;28;20554;-77
2022/12/17 23:03:48;;;;;;;37.33;17.38;;;;;;;-3.71;61.17;101023.38;5010964;28;20080;-76
2022/12/17 23:06:16;;;;;;;30.98;15.85;;;;;;;-3.70;61.41;101038.88;5010989;28;20057;-77
2022/12/17 23:08:43;;;;;;;32.55;15.95;;;;;;;-3.67;61.59;101044.09;5010778;28;20085;-77
2022/12/17 23:11:13;;;;;;;37.00;16.85;;;;;;;-3.65;61.44;101046.72;5010986;28;20081;-77
2022/12/17 23:13:40;;;;;;;31.35;15.55;;;;;;;-3.63;61.65;101049.31;5010497;28;20133;-77
2022/12/17 23:16:09;;;;;;;35.13;17.08;;;;;;;-3.61;60.92;101043.38;4993308;28;20054;-76
2022/12/17 23:18:36;;;;;;;28.98;14.63;;;;;;;-3.58;60.98;101051.16;5010652;28;20057;-76
2022/12/17 23:21:10;;;;;;;34.65;16.70;;;;;;;-3.57;62.03;101049.44;5010509;28;20511;-77
2022/12/17 23:23:37;;;;;;;34.60;16.10;;;;;;;-3.53;61.11;101053.81;5010771;28;20054;-76
2022/12/17 23:26:13;;;;;;;31.85;16.00;;;;;;;-3.51;62.30;101048.72;5010568;28;20054;-77
2022/12/17 23:28:40;;;;;;;31.27;16.42;;;;;;;-3.49;61.27;101045.34;5010852;28;20112;-77
2022/12/17 23:31:16;;;;;;;32.13;15.80;;;;;;;-3.49;62.09;101045.34;4992939;28;20085;-77
2022/12/17 23:33:43;;;;;;;26.90;15.07;;;;;;;-3.45;61.73;101042.00;5010433;28;20056;-77
2022/12/17 23:36:18;;;;;;;33.58;16.27;;;;;;;-3.44;61.69;101040.31;5010169;28;20053;-76
2022/12/17 23:38:46;;;;;;;31.60;16.13;;;;;;;-3.43;61.41;101032.59;5010320;28;20057;-76
2022/12/17 23:41:15;;;;;;;33.70;16.00;;;;;;;-3.40;61.72;101037.81;5010666;28;20058;-77
2022/12/17 23:43:42;;;;;;;30.73;16.35;;;;;;;-3.40;61.64;101039.53;5010225;28;20554;-77
2022/12/17 23:46:09;;;;;;;33.78;16.63;;;;;;;-3.40;61.57;101037.81;5010103;28;20089;-76
2022/12/17 23:48:38;;;;;;;30.17;16.15;;;;;;;-3.39;61.25;101033.53;4992806;28;20097;-77
2022/12/17 23:51:13;;;;;;;29.20;14.55;;;;;;;-3.38;61.66;101037.84;5010596;28;20054;-77
2022/12/17 23:53:40;;;;;;;28.67;15.95;;;;;;;-3.36;61.98;101041.34;5010346;28;20046;-77
2022/12/17 23:56:10;;;;;;;29.98;15.40;;;;;;;-3.35;61.80;101048.22;5010106;28;20054;-77
2022/12/17 23:58:38;;;;;;;29.55;15.50;;;;;;;-3.33;61.95;101059.41;5009976;28;20084;-78
